createdAt,value
2023-02-02T00:01:57.776Z,7.00
2023-02-02T00:04:28.155Z,7.00
2023-02-02T00:06:59.212Z,6.90
2023-02-02T00:09:32.594Z,6.90
2023-02-02T00:12:01.858Z,6.90
2023-02-02T00:14:29.778Z,6.80
2023-02-02T00:16:58.855Z,6.80
2023-02-02T00:19:28.714Z,6.80
2023-02-02T00:21:57.804Z,6.80
2023-02-02T00:24:26.819Z,6.80
2023-02-02T00:26:57.226Z,6.90
2023-02-02T00:29:28.010Z,6.90
2023-02-02T00:31:56.222Z,6.80
2023-02-02T00:34:37.365Z,6.80
2023-02-02T00:37:06.093Z,6.80
2023-02-02T00:39:34.647Z,6.80
2023-02-02T00:42:12.094Z,6.80
2023-02-02T00:44:43.995Z,6.80
2023-02-02T00:47:34.257Z,6.70
2023-02-02T00:50:01.733Z,6.70
2023-02-02T00:52:30.049Z,6.80
2023-02-02T00:54:58.871Z,6.80
2023-02-02T00:57:26.349Z,6.70
2023-02-02T00:59:54.129Z,6.80
2023-02-02T01:02:21.890Z,6.70
2023-02-02T01:04:50.579Z,6.70
2023-02-02T01:07:18.240Z,6.70
2023-02-02T01:09:45.946Z,6.60
2023-02-02T01:12:13.375Z,6.60
2023-02-02T01:14:41.262Z,6.50
2023-02-02T01:17:09.191Z,6.60
2023-02-02T01:19:37.501Z,6.60
2023-02-02T01:22:08.999Z,6.60
2023-02-02T01:24:36.503Z,6.70
2023-02-02T01:27:04.140Z,6.70
2023-02-02T01:29:32.244Z,6.70
2023-02-02T01:32:00.024Z,6.70
2023-02-02T01:34:28.360Z,6.60
2023-02-02T01:36:55.752Z,6.60
2023-02-02T01:39:23.921Z,6.60
2023-02-02T01:41:53.770Z,6.50
2023-02-02T01:45:00.537Z,6.60
2023-02-02T01:47:32.238Z,6.60
2023-02-02T01:50:00.342Z,6.60
2023-02-02T01:52:30.506Z,6.60
2023-02-02T01:55:01.362Z,6.60
2023-02-02T01:57:38.862Z,6.60
2023-02-02T02:00:10.156Z,6.60
2023-02-02T02:02:46.166Z,6.60
2023-02-02T02:05:17.657Z,6.70
2023-02-02T02:07:48.103Z,6.70
2023-02-02T02:10:19.210Z,6.70
2023-02-02T02:12:48.893Z,6.60
2023-02-02T02:15:35.221Z,6.60
2023-02-02T02:18:09.512Z,6.60
2023-02-02T02:21:24.260Z,6.50
2023-02-02T02:24:33.597Z,6.50
2023-02-02T02:27:20.481Z,6.50
2023-02-02T02:30:08.427Z,6.40
2023-02-02T02:32:40.383Z,6.40
2023-02-02T02:35:15.166Z,6.40
2023-02-02T02:38:07.757Z,6.50
2023-02-02T02:40:39.131Z,6.50
2023-02-02T02:43:10.454Z,6.50
2023-02-02T02:45:40.419Z,6.50
2023-02-02T02:48:10.945Z,6.50
2023-02-02T02:50:38.603Z,6.50
2023-02-02T02:53:10.343Z,6.50
2023-02-02T02:55:50.220Z,6.50
2023-02-02T02:58:21.806Z,6.40
2023-02-02T03:00:53.334Z,6.40
2023-02-02T03:03:44.548Z,6.40
2023-02-02T03:06:40.757Z,6.30
2023-02-02T03:09:11.948Z,6.30
2023-02-02T03:11:53.886Z,6.30
2023-02-02T03:14:24.458Z,6.30
2023-02-02T03:16:53.159Z,6.30
2023-02-02T03:19:21.982Z,6.30
2023-02-02T03:21:51.877Z,6.30
2023-02-02T03:24:19.530Z,6.30
2023-02-02T03:26:47.224Z,6.30
2023-02-02T03:29:15.450Z,6.30
2023-02-02T03:31:43.203Z,6.20
2023-02-02T03:34:10.642Z,6.20
2023-02-02T03:36:38.566Z,6.20
2023-02-02T03:39:06.380Z,6.20
2023-02-02T03:41:34.792Z,6.20
2023-02-02T03:44:02.322Z,6.10
2023-02-02T03:46:30.640Z,6.10
2023-02-02T03:49:09.421Z,6.00
2023-02-02T03:51:37.530Z,6.00
2023-02-02T03:54:05.230Z,6.00
2023-02-02T03:56:33.325Z,6.00
2023-02-02T03:59:00.781Z,6.00
2023-02-02T04:01:30.625Z,6.00
2023-02-02T04:03:59.296Z,6.10
2023-02-02T04:06:28.635Z,6.00
2023-02-02T04:08:56.146Z,6.10
2023-02-02T04:11:24.966Z,6.00
2023-02-02T04:13:52.386Z,5.90
2023-02-02T04:16:20.293Z,5.80
2023-02-02T04:18:47.916Z,5.90
2023-02-02T04:21:19.335Z,5.80
2023-02-02T04:23:52.155Z,5.80
2023-02-02T04:26:20.416Z,5.80
2023-02-02T04:28:48.171Z,5.80
2023-02-02T04:31:16.186Z,5.80
2023-02-02T04:33:43.821Z,5.70
2023-02-02T04:39:02.448Z,5.80
2023-02-02T04:41:33.561Z,5.80
2023-02-02T04:44:01.130Z,5.80
2023-02-02T04:46:30.055Z,5.80
2023-02-02T04:48:57.787Z,5.80
2023-02-02T04:51:25.618Z,5.80
2023-02-02T04:53:53.719Z,5.90
2023-02-02T04:56:23.691Z,5.90
2023-02-02T04:58:54.414Z,5.90
2023-02-02T05:01:23.218Z,5.90
2023-02-02T05:03:51.100Z,5.90
2023-02-02T05:06:19.841Z,5.90
2023-02-02T05:08:50.867Z,5.90
2023-02-02T05:11:21.646Z,5.90
2023-02-02T05:13:54.668Z,5.90
2023-02-02T05:16:23.579Z,5.80
2023-02-02T05:18:54.582Z,5.80
2023-02-02T05:21:25.054Z,5.80
2023-02-02T05:23:53.013Z,5.80
2023-02-02T05:26:24.032Z,5.80
2023-02-02T05:28:52.241Z,5.80
2023-02-02T05:31:20.236Z,5.80
2023-02-02T05:33:47.971Z,5.80
2023-02-02T05:36:15.284Z,5.80
2023-02-02T05:38:43.333Z,5.80
2023-02-02T05:41:12.720Z,5.70
2023-02-02T05:43:41.281Z,5.70
2023-02-02T05:46:09.117Z,5.70
2023-02-02T05:48:36.887Z,5.60
2023-02-02T05:51:10.816Z,5.60
2023-02-02T05:53:38.333Z,5.70
2023-02-02T05:56:09.349Z,5.70
2023-02-02T05:58:37.094Z,5.60
2023-02-02T06:01:05.689Z,5.60
2023-02-02T06:03:33.699Z,5.70
2023-02-02T06:06:01.863Z,5.60
2023-02-02T06:08:30.089Z,5.60
2023-02-02T06:10:57.797Z,5.60
2023-02-02T06:13:25.784Z,5.60
2023-02-02T06:15:53.451Z,5.60
2023-02-02T06:18:21.360Z,5.60
2023-02-02T06:20:49.212Z,5.60
2023-02-02T06:23:17.118Z,5.60
2023-02-02T06:25:46.673Z,5.50
2023-02-02T06:28:14.969Z,5.50
2023-02-02T06:30:44.205Z,5.50
2023-02-02T06:33:12.280Z,5.50
2023-02-02T06:35:40.255Z,5.50
2023-02-02T06:38:08.177Z,5.50
2023-02-02T06:40:35.940Z,5.50
2023-02-02T06:43:04.046Z,5.50
2023-02-02T06:45:31.553Z,5.40
2023-02-02T06:48:05.388Z,5.40
2023-02-02T06:50:33.209Z,5.40
2023-02-02T06:53:00.960Z,5.40
2023-02-02T06:55:28.830Z,5.40
2023-02-02T06:57:58.156Z,5.40
2023-02-02T07:00:27.000Z,5.40
2023-02-02T07:02:54.765Z,5.40
2023-02-02T07:05:24.604Z,5.30
2023-02-02T07:07:53.058Z,5.30
2023-02-02T07:11:12.016Z,5.30
2023-02-02T07:12:51.700Z,5.30
2023-02-02T07:15:19.028Z,5.40
2023-02-02T07:17:47.074Z,5.40
2023-02-02T07:20:14.470Z,5.40
2023-02-02T07:22:45.327Z,5.40
2023-02-02T07:25:13.092Z,5.40
2023-02-02T07:27:40.854Z,5.40
2023-02-02T07:30:09.966Z,5.40
2023-02-02T07:32:37.585Z,5.40
2023-02-02T07:35:06.195Z,5.40
2023-02-02T07:37:33.599Z,5.40
2023-02-02T07:40:01.458Z,5.40
2023-02-02T07:42:29.553Z,5.40
2023-02-02T07:45:26.490Z,5.40
2023-02-02T07:47:46.571Z,5.40
2023-02-02T07:50:38.334Z,5.40
2023-02-02T07:53:05.578Z,5.50
2023-02-02T07:55:33.238Z,5.50
2023-02-02T07:58:01.824Z,5.60
2023-02-02T08:00:29.964Z,5.60
2023-02-02T08:02:57.596Z,5.70
2023-02-02T08:05:26.265Z,5.70
2023-02-02T08:07:54.139Z,5.80
2023-02-02T08:10:21.702Z,5.90
2023-02-02T08:12:49.222Z,5.90
2023-02-02T08:15:17.123Z,5.90
2023-02-02T08:17:47.069Z,5.90
2023-02-02T08:20:15.689Z,6.00
2023-02-02T08:22:57.213Z,6.00
2023-02-02T08:25:25.854Z,6.10
2023-02-02T08:27:56.263Z,6.10
2023-02-02T08:30:24.297Z,6.20
2023-02-02T08:32:52.331Z,6.20
2023-02-02T08:35:20.079Z,6.30
2023-02-02T08:37:50.171Z,6.30
2023-02-02T08:40:19.355Z,6.30
2023-02-02T08:42:47.852Z,6.30
2023-02-02T08:46:01.997Z,6.40
2023-02-02T08:47:49.275Z,6.50
2023-02-02T08:50:18.268Z,6.60
2023-02-02T08:52:59.715Z,6.60
2023-02-02T08:55:27.896Z,6.70
2023-02-02T08:57:56.612Z,6.80
2023-02-02T09:00:24.948Z,6.80
2023-02-02T09:02:52.738Z,6.90
2023-02-02T09:05:24.093Z,7.10
2023-02-02T09:07:52.286Z,7.20
2023-02-02T09:10:20.345Z,7.30
2023-02-02T09:12:48.034Z,7.40
2023-02-02T09:15:16.074Z,7.40
2023-02-02T09:17:43.865Z,7.50
2023-02-02T09:20:15.716Z,7.60
2023-02-02T09:22:43.828Z,7.70
2023-02-02T09:25:11.709Z,7.80
2023-02-02T09:27:41.262Z,7.90
2023-02-02T09:30:10.341Z,7.90
2023-02-02T09:32:38.394Z,8.00
2023-02-02T09:35:07.380Z,8.10
2023-02-02T09:37:35.451Z,8.10
2023-02-02T09:40:03.687Z,8.20
2023-02-02T09:42:53.420Z,8.30
2023-02-02T09:45:37.601Z,8.30
2023-02-02T09:48:15.239Z,8.40
2023-02-02T09:50:52.980Z,8.50
2023-02-02T09:53:27.119Z,8.50
2023-02-02T09:55:58.691Z,8.60
2023-02-02T09:58:30.390Z,8.60
2023-02-02T10:01:04.899Z,8.70
2023-02-02T10:03:48.211Z,8.70
2023-02-02T10:06:43.090Z,8.80
2023-02-02T10:09:48.477Z,8.80
2023-02-02T10:12:33.032Z,8.90
2023-02-02T10:15:25.353Z,9.00
2023-02-02T10:18:15.437Z,9.00
2023-02-02T10:20:53.363Z,9.10
2023-02-02T10:23:40.268Z,9.20
2023-02-02T10:26:14.798Z,9.30
2023-02-02T10:28:44.243Z,9.30
2023-02-02T10:31:25.121Z,9.40
2023-02-02T10:34:11.260Z,9.50
2023-02-02T10:37:03.031Z,9.50
2023-02-02T10:39:46.671Z,9.60
2023-02-02T10:42:21.495Z,9.70
2023-02-02T10:44:53.220Z,9.80
2023-02-02T10:47:31.056Z,9.80
2023-02-02T10:50:08.860Z,9.90
2023-02-02T10:52:37.724Z,10.00
2023-02-02T10:55:21.448Z,10.10
2023-02-02T10:58:10.202Z,10.20
2023-02-02T11:00:49.025Z,10.30
2023-02-02T11:03:20.300Z,10.30
2023-02-02T11:06:06.215Z,10.40
2023-02-02T11:08:46.355Z,10.40
2023-02-02T11:11:42.518Z,10.50
2023-02-02T11:14:15.527Z,10.60
2023-02-02T11:16:45.796Z,10.70
2023-02-02T11:19:26.577Z,10.70
2023-02-02T11:22:00.727Z,10.80
2023-02-02T11:24:37.872Z,10.90
2023-02-02T11:27:09.547Z,10.90
2023-02-02T11:29:49.670Z,11.00
2023-02-02T11:32:20.981Z,11.10
2023-02-02T11:34:50.201Z,11.10
2023-02-02T11:37:22.697Z,11.30
2023-02-02T11:39:53.021Z,11.30
2023-02-02T11:42:25.451Z,11.40
2023-02-02T11:44:56.869Z,11.50
2023-02-02T11:47:30.635Z,11.60
2023-02-02T11:50:01.496Z,11.60
2023-02-02T11:52:34.609Z,11.70
2023-02-02T11:55:06.333Z,11.70
2023-02-02T11:57:34.396Z,11.70
2023-02-02T12:00:18.322Z,11.80
2023-02-02T12:02:59.637Z,11.80
2023-02-02T12:05:31.635Z,11.90
2023-02-02T12:08:12.787Z,12.00
2023-02-02T12:10:44.673Z,12.10
2023-02-02T12:13:22.398Z,12.20
2023-02-02T12:15:54.380Z,12.40
2023-02-02T12:19:01.147Z,12.50
2023-02-02T12:21:54.528Z,12.70
2023-02-02T12:24:34.651Z,12.90
2023-02-02T12:27:29.102Z,13.10
2023-02-02T12:30:13.192Z,13.20
2023-02-02T12:32:48.344Z,13.50
2023-02-02T12:35:24.135Z,13.80
2023-02-02T12:38:10.472Z,14.10
2023-02-02T12:40:47.860Z,14.50
2023-02-02T12:43:44.043Z,14.90
2023-02-02T12:46:24.697Z,15.30
2023-02-02T12:49:26.614Z,15.40
2023-02-02T12:51:58.222Z,15.60
2023-02-02T12:54:52.193Z,16.00
2023-02-02T12:57:17.638Z,16.20
2023-02-02T13:00:01.413Z,16.50
2023-02-02T13:02:39.456Z,16.80
2023-02-02T13:05:17.610Z,16.60
2023-02-02T13:07:58.706Z,16.50
2023-02-02T13:10:36.214Z,16.50
2023-02-02T13:13:16.450Z,16.60
2023-02-02T13:15:50.690Z,16.60
2023-02-02T13:18:37.319Z,16.60
2023-02-02T13:21:09.173Z,16.70
2023-02-02T13:23:43.592Z,16.70
2023-02-02T13:26:16.388Z,16.60
2023-02-02T13:28:54.368Z,16.70
2023-02-02T13:31:28.726Z,16.80
2023-02-02T13:34:08.688Z,16.80
2023-02-02T13:36:39.116Z,16.80
2023-02-02T13:39:19.789Z,17.00
2023-02-02T13:41:49.492Z,17.10
2023-02-02T13:44:28.276Z,17.20
2023-02-02T13:46:59.664Z,17.00
2023-02-02T13:49:33.910Z,17.00
2023-02-02T13:52:11.320Z,17.30
2023-02-02T13:54:52.075Z,17.70
2023-02-02T13:57:53.939Z,17.90
2023-02-02T14:00:50.484Z,18.40
2023-02-02T14:03:38.982Z,19.00
2023-02-02T14:06:18.366Z,19.50
2023-02-02T14:08:58.535Z,20.20
2023-02-02T14:11:30.084Z,20.40
2023-02-02T14:14:20.292Z,21.00
2023-02-02T14:16:50.274Z,21.70
2023-02-02T14:19:33.715Z,21.90
2023-02-02T14:22:13.538Z,23.00
2023-02-02T14:24:47.981Z,24.20
2023-02-02T14:27:19.886Z,25.00
2023-02-02T14:29:53.217Z,25.80
2023-02-02T14:32:30.824Z,26.60
2023-02-02T14:35:19.775Z,26.30
2023-02-02T14:38:09.470Z,26.60
2023-02-02T14:40:52.061Z,26.90
2023-02-02T14:43:44.518Z,26.70
2023-02-02T14:46:19.147Z,26.80
2023-02-02T14:48:47.817Z,27.40
2023-02-02T14:51:22.555Z,28.00
2023-02-02T14:53:54.005Z,28.60
2023-02-02T14:56:24.550Z,29.30
2023-02-02T14:59:02.138Z,29.80
2023-02-02T15:01:33.514Z,29.90
2023-02-02T15:04:20.215Z,30.50
2023-02-02T15:06:50.377Z,30.90
2023-02-02T15:09:32.915Z,31.20
2023-02-02T15:12:07.303Z,31.30
2023-02-02T15:14:59.166Z,31.20
2023-02-02T15:17:49.249Z,30.40
2023-02-02T15:20:44.943Z,29.40
2023-02-02T15:23:31.784Z,28.40
2023-02-02T15:26:09.235Z,28.30
2023-02-02T15:29:04.193Z,28.10
2023-02-02T15:31:44.767Z,28.20
2023-02-02T15:34:22.569Z,28.40
2023-02-02T15:36:53.889Z,28.30
2023-02-02T15:39:30.878Z,28.00
2023-02-02T15:42:20.043Z,27.50
2023-02-02T15:44:47.939Z,27.10
2023-02-02T15:47:22.401Z,26.90
2023-02-02T15:49:51.527Z,26.40
2023-02-02T15:52:25.899Z,25.80
2023-02-02T15:54:56.570Z,25.30
2023-02-02T15:57:33.320Z,24.60
2023-02-02T16:00:04.831Z,23.90
2023-02-02T16:02:40.943Z,23.20
2023-02-02T16:05:28.305Z,22.70
2023-02-02T16:08:05.746Z,22.40
2023-02-02T16:10:28.144Z,21.80
2023-02-02T16:12:56.903Z,21.10
2023-02-02T16:15:32.397Z,20.30
2023-02-02T16:18:08.143Z,19.60
2023-02-02T16:20:38.960Z,18.90
2023-02-02T16:23:10.293Z,18.30
2023-02-02T16:25:42.004Z,17.70
2023-02-02T16:28:13.412Z,17.20
2023-02-02T16:30:41.840Z,16.80
2023-02-02T16:33:30.751Z,16.40
2023-02-02T16:36:03.198Z,16.20
2023-02-02T16:38:33.927Z,15.90
2023-02-02T16:41:10.700Z,15.70
2023-02-02T16:43:41.397Z,15.40
2023-02-02T16:46:14.975Z,15.20
2023-02-02T16:48:45.512Z,15.10
2023-02-02T16:51:20.258Z,14.90
2023-02-02T16:53:49.915Z,14.80
2023-02-02T16:56:36.223Z,14.60
2023-02-02T16:59:22.445Z,14.50
2023-02-02T17:01:53.732Z,14.30
2023-02-02T17:04:26.933Z,14.20
2023-02-02T17:06:57.562Z,14.10
2023-02-02T17:09:37.619Z,13.90
2023-02-02T17:12:36.741Z,13.80
2023-02-02T17:15:04.221Z,13.80
2023-02-02T17:17:32.350Z,13.70
2023-02-02T17:20:00.248Z,13.60
2023-02-02T17:22:28.744Z,13.50
2023-02-02T17:24:56.896Z,13.40
2023-02-02T17:27:28.169Z,13.40
2023-02-02T17:29:57.368Z,13.40
2023-02-02T17:32:25.230Z,13.30
2023-02-02T17:34:56.230Z,13.20
2023-02-02T17:37:24.614Z,13.20
2023-02-02T17:39:52.362Z,13.10
2023-02-02T17:42:28.452Z,13.00
2023-02-02T17:44:56.095Z,12.90
2023-02-02T17:47:26.727Z,12.80
2023-02-02T17:49:54.102Z,12.70
2023-02-02T17:52:22.053Z,12.60
2023-02-02T17:54:51.065Z,12.60
2023-02-02T17:57:20.343Z,12.50
2023-02-02T17:59:49.518Z,12.40
2023-02-02T18:02:17.671Z,12.30
2023-02-02T18:04:45.910Z,12.20
2023-02-02T18:07:13.866Z,12.10
2023-02-02T18:09:41.869Z,12.10
2023-02-02T18:12:09.694Z,12.10
2023-02-02T18:14:38.408Z,12.00
2023-02-02T18:17:06.011Z,12.00
2023-02-02T18:19:34.022Z,12.00
2023-02-02T18:22:02.486Z,11.80
2023-02-02T18:24:30.971Z,11.80
2023-02-02T18:27:12.155Z,11.70
2023-02-02T18:29:40.215Z,11.70
2023-02-02T18:32:08.004Z,11.70
2023-02-02T18:34:42.112Z,11.60
2023-02-02T18:37:10.280Z,11.50
2023-02-02T18:39:38.259Z,11.50
2023-02-02T18:42:06.171Z,11.40
2023-02-02T18:44:35.518Z,11.40
2023-02-02T18:47:03.176Z,11.40
2023-02-02T18:49:31.133Z,11.40
2023-02-02T18:51:58.874Z,11.30
2023-02-02T18:54:27.809Z,11.20
2023-02-02T18:56:55.867Z,11.20
2023-02-02T18:59:23.231Z,11.10
2023-02-02T19:01:51.271Z,11.10
2023-02-02T19:04:19.566Z,11.10
2023-02-02T19:07:05.872Z,11.00
2023-02-02T19:09:34.057Z,11.00
2023-02-02T19:12:02.925Z,10.90
2023-02-02T19:14:33.578Z,10.80
2023-02-02T19:17:05.296Z,10.80
2023-02-02T19:19:34.714Z,10.80
2023-02-02T19:22:06.383Z,10.70
2023-02-02T19:24:39.855Z,10.70
2023-02-02T19:27:22.505Z,10.60
2023-02-02T19:29:53.820Z,10.60
2023-02-02T19:32:24.485Z,10.60
2023-02-02T19:34:55.729Z,10.70
2023-02-02T19:37:29.437Z,10.50
2023-02-02T19:40:09.884Z,10.40
2023-02-02T19:42:46.448Z,10.40
2023-02-02T19:45:26.600Z,10.40
2023-02-02T19:47:57.281Z,10.30
2023-02-02T19:50:28.298Z,10.30
2023-02-02T19:52:57.092Z,10.20
2023-02-02T19:55:27.797Z,10.20
2023-02-02T19:58:01.708Z,10.00
2023-02-02T20:00:35.764Z,10.00
2023-02-02T20:03:09.444Z,10.00
2023-02-02T20:05:45.950Z,10.10
2023-02-02T20:08:27.018Z,10.10
2023-02-02T20:10:57.576Z,10.10
2023-02-02T20:13:35.621Z,10.10
2023-02-02T20:16:06.414Z,10.10
2023-02-02T20:18:41.475Z,10.10
2023-02-02T20:21:22.836Z,10.00
2023-02-02T20:23:52.240Z,10.00
2023-02-02T20:26:30.129Z,9.90
2023-02-02T20:29:00.383Z,9.90
2023-02-02T20:31:32.147Z,9.80
2023-02-02T20:34:00.324Z,9.70
2023-02-02T20:36:32.108Z,9.70
2023-02-02T20:39:02.686Z,9.70
2023-02-02T20:41:30.728Z,9.70
2023-02-02T20:43:59.140Z,9.60
2023-02-02T20:46:27.032Z,9.60
2023-02-02T20:48:55.071Z,9.50
2023-02-02T20:51:22.552Z,9.50
2023-02-02T20:53:50.929Z,9.50
2023-02-02T20:56:18.727Z,9.50
2023-02-02T20:58:46.879Z,9.40
2023-02-02T21:01:14.868Z,9.40
2023-02-02T21:03:42.681Z,9.50
2023-02-02T21:06:10.504Z,9.40
2023-02-02T21:08:38.762Z,9.40
2023-02-02T21:11:19.665Z,9.30
2023-02-02T21:13:48.706Z,9.30
2023-02-02T21:16:16.395Z,9.20
2023-02-02T21:18:47.349Z,9.20
2023-02-02T21:21:17.764Z,9.30
2023-02-02T21:23:49.067Z,9.20
2023-02-02T21:28:49.755Z,9.10
2023-02-02T21:31:18.419Z,9.10
2023-02-02T21:33:48.130Z,9.00
2023-02-02T21:36:20.824Z,9.00
2023-02-02T21:38:48.588Z,9.00
2023-02-02T21:41:30.005Z,9.00
2023-02-02T21:43:58.544Z,9.00
2023-02-02T21:46:31.212Z,9.00
2023-02-02T21:49:06.856Z,8.90
2023-02-02T21:51:36.517Z,8.80
2023-02-02T21:54:26.297Z,8.80
2023-02-02T21:56:54.624Z,8.70
2023-02-02T21:59:26.907Z,8.70
2023-02-02T22:01:55.402Z,8.70
2023-02-02T22:04:29.828Z,8.60
2023-02-02T22:07:02.526Z,8.60
2023-02-02T22:09:42.735Z,8.60
2023-02-02T22:12:14.411Z,8.60
2023-02-02T22:14:44.627Z,8.60
2023-02-02T22:17:37.166Z,8.60
2023-02-02T22:20:18.125Z,8.60
2023-02-02T22:22:48.463Z,8.60
2023-02-02T22:25:44.425Z,8.60
2023-02-02T22:28:28.492Z,8.60
2023-02-02T22:31:13.007Z,8.50
2023-02-02T22:33:43.915Z,8.50
2023-02-02T22:36:11.794Z,8.50
2023-02-02T22:38:40.180Z,8.40
2023-02-02T22:41:10.192Z,8.40
2023-02-02T22:43:38.116Z,8.30
2023-02-02T22:46:05.597Z,8.30
2023-02-02T22:48:33.112Z,8.30
2023-02-02T22:51:00.854Z,8.30
2023-02-02T22:53:28.707Z,8.30
2023-02-02T22:55:57.187Z,8.30
2023-02-02T22:58:25.387Z,8.30
2023-02-02T23:00:53.212Z,8.20
2023-02-02T23:03:20.926Z,8.10
2023-02-02T23:05:48.783Z,8.10
2023-02-02T23:08:16.634Z,8.10
2023-02-02T23:10:44.494Z,8.10
2023-02-02T23:13:12.067Z,8.10
2023-02-02T23:15:39.837Z,8.10
2023-02-02T23:18:07.805Z,8.00
2023-02-02T23:20:35.865Z,7.90
2023-02-02T23:23:03.844Z,7.90
2023-02-02T23:25:31.586Z,7.90
2023-02-02T23:27:59.241Z,7.80
2023-02-02T23:30:27.089Z,7.70
2023-02-02T23:32:55.127Z,7.70
2023-02-02T23:35:36.721Z,7.70
2023-02-02T23:38:05.576Z,7.70
2023-02-02T23:40:33.180Z,7.70
2023-02-02T23:43:01.234Z,7.80
2023-02-02T23:45:31.330Z,7.80
2023-02-02T23:47:59.035Z,7.70
2023-02-02T23:50:27.757Z,7.80
2023-02-02T23:52:55.939Z,7.80
2023-02-02T23:55:24.581Z,7.80
2023-02-02T23:57:52.598Z,7.70
